sensor_id;sensor_type;location;lat;lon;timestamp;temperature;humidity
10083;DHT22;5080;48.528;8.078;2023-02-11T00:00:15;0.50;99.90
10083;DHT22;5080;48.528;8.078;2023-02-11T00:02:42;0.50;99.90
10083;DHT22;5080;48.528;8.078;2023-02-11T00:05:09;0.50;99.90
10083;DHT22;5080;48.528;8.078;2023-02-11T00:07:38;0.40;99.90
10083;DHT22;5080;48.528;8.078;2023-02-11T00:10:06;0.40;99.90
10083;DHT22;5080;48.528;8.078;2023-02-11T00:12:33;0.40;99.90
10083;DHT22;5080;48.528;8.078;2023-02-11T00:14:59;0.30;99.90
10083;DHT22;5080;48.528;8.078;2023-02-11T00:17:26;0.30;99.90
10083;DHT22;5080;48.528;8.078;2023-02-11T00:19:53;0.30;99.90
10083;DHT22;5080;48.528;8.078;2023-02-11T00:22:20;0.40;99.90
10083;DHT22;5080;48.528;8.078;2023-02-11T00:24:48;0.40;99.90
10083;DHT22;5080;48.528;8.078;2023-02-11T00:27:15;0.40;99.90
10083;DHT22;5080;48.528;8.078;2023-02-11T00:29:42;0.40;99.90
10083;DHT22;5080;48.528;8.078;2023-02-11T00:32:09;0.40;99.90
10083;DHT22;5080;48.528;8.078;2023-02-11T00:34:36;0.30;99.90
10083;DHT22;5080;48.528;8.078;2023-02-11T00:37:03;0.40;99.90
10083;DHT22;5080;48.528;8.078;2023-02-11T00:39:31;0.30;99.90
10083;DHT22;5080;48.528;8.078;2023-02-11T00:41:59;0.30;99.90
10083;DHT22;5080;48.528;8.078;2023-02-11T00:44:26;0.30;99.90
10083;DHT22;5080;48.528;8.078;2023-02-11T00:46:53;0.20;99.90
10083;DHT22;5080;48.528;8.078;2023-02-11T00:49:19;0.20;99.90
10083;DHT22;5080;48.528;8.078;2023-02-11T00:51:46;0.20;99.90
10083;DHT22;5080;48.528;8.078;2023-02-11T00:54:13;0.20;99.90
10083;DHT22;5080;48.528;8.078;2023-02-11T00:56:40;0.10;99.90
10083;DHT22;5080;48.528;8.078;2023-02-11T00:59:08;0.10;99.90
10083;DHT22;5080;48.528;8.078;2023-02-11T01:01:35;0.00;99.90
10083;DHT22;5080;48.528;8.078;2023-02-11T01:04:02;0.00;99.90
10083;DHT22;5080;48.528;8.078;2023-02-11T01:06:29;0.10;99.90
10083;DHT22;5080;48.528;8.078;2023-02-11T01:08:56;0.00;99.90
10083;DHT22;5080;48.528;8.078;2023-02-11T01:11:22;0.10;99.90
10083;DHT22;5080;48.528;8.078;2023-02-11T01:13:50;0.10;99.90
10083;DHT22;5080;48.528;8.078;2023-02-11T01:16:19;0.20;99.90
10083;DHT22;5080;48.528;8.078;2023-02-11T01:18:46;0.20;99.90
10083;DHT22;5080;48.528;8.078;2023-02-11T01:21:13;0.20;99.90
10083;DHT22;5080;48.528;8.078;2023-02-11T01:23:40;0.30;99.90
10083;DHT22;5080;48.528;8.078;2023-02-11T01:26:07;0.40;99.90
10083;DHT22;5080;48.528;8.078;2023-02-11T01:28:34;0.40;99.90
10083;DHT22;5080;48.528;8.078;2023-02-11T01:31:02;0.40;99.90
10083;DHT22;5080;48.528;8.078;2023-02-11T01:33:30;0.40;99.90
10083;DHT22;5080;48.528;8.078;2023-02-11T01:35:59;0.40;99.90
10083;DHT22;5080;48.528;8.078;2023-02-11T01:38:27;0.40;99.90
10083;DHT22;5080;48.528;8.078;2023-02-11T01:40:56;0.40;99.90
10083;DHT22;5080;48.528;8.078;2023-02-11T01:43:25;0.40;99.90
10083;DHT22;5080;48.528;8.078;2023-02-11T01:45:58;0.40;99.90
10083;DHT22;5080;48.528;8.078;2023-02-11T01:48:30;0.50;99.90
10083;DHT22;5080;48.528;8.078;2023-02-11T01:51:02;0.40;99.90
10083;DHT22;5080;48.528;8.078;2023-02-11T01:53:31;0.40;99.90
10083;DHT22;5080;48.528;8.078;2023-02-11T01:56:17;0.40;99.90
10083;DHT22;5080;48.528;8.078;2023-02-11T01:59:06;0.30;99.90
10083;DHT22;5080;48.528;8.078;2023-02-11T02:01:36;0.20;99.90
10083;DHT22;5080;48.528;8.078;2023-02-11T02:04:07;0.20;99.90
10083;DHT22;5080;48.528;8.078;2023-02-11T02:06:42;0.20;99.90
10083;DHT22;5080;48.528;8.078;2023-02-11T02:09:14;0.10;99.90
10083;DHT22;5080;48.528;8.078;2023-02-11T02:11:42;0.10;99.90
10083;DHT22;5080;48.528;8.078;2023-02-11T02:14:09;0.10;99.90
10083;DHT22;5080;48.528;8.078;2023-02-11T02:16:36;0.10;99.90
10083;DHT22;5080;48.528;8.078;2023-02-11T02:22:31;0.20;99.90
10083;DHT22;5080;48.528;8.078;2023-02-11T02:25:19;0.20;99.90
10083;DHT22;5080;48.528;8.078;2023-02-11T02:27:52;0.20;99.90
10083;DHT22;5080;48.528;8.078;2023-02-11T02:33:43;0.30;99.90
10083;DHT22;5080;48.528;8.078;2023-02-11T02:36:15;0.30;99.90
10083;DHT22;5080;48.528;8.078;2023-02-11T02:38:49;0.40;99.90
10083;DHT22;5080;48.528;8.078;2023-02-11T02:41:20;0.40;99.90
10083;DHT22;5080;48.528;8.078;2023-02-11T02:43:49;0.40;99.90
10083;DHT22;5080;48.528;8.078;2023-02-11T02:46:18;0.50;99.90
10083;DHT22;5080;48.528;8.078;2023-02-11T02:48:48;0.50;99.90
10083;DHT22;5080;48.528;8.078;2023-02-11T02:57:27;0.50;99.90
10083;DHT22;5080;48.528;8.078;2023-02-11T03:00:09;0.50;99.90
10083;DHT22;5080;48.528;8.078;2023-02-11T03:02:44;0.40;99.90
10083;DHT22;5080;48.528;8.078;2023-02-11T03:05:17;0.40;99.90
10083;DHT22;5080;48.528;8.078;2023-02-11T03:07:51;0.30;99.90
10083;DHT22;5080;48.528;8.078;2023-02-11T03:10:26;0.30;99.90
10083;DHT22;5080;48.528;8.078;2023-02-11T03:12:54;0.30;99.90
10083;DHT22;5080;48.528;8.078;2023-02-11T03:15:23;0.30;99.90
10083;DHT22;5080;48.528;8.078;2023-02-11T03:17:53;0.30;99.90
10083;DHT22;5080;48.528;8.078;2023-02-11T03:20:23;0.30;99.90
10083;DHT22;5080;48.528;8.078;2023-02-11T03:22:53;0.40;99.90
10083;DHT22;5080;48.528;8.078;2023-02-11T03:25:25;0.30;99.90
10083;DHT22;5080;48.528;8.078;2023-02-11T03:27:58;0.30;99.90
10083;DHT22;5080;48.528;8.078;2023-02-11T03:30:32;0.30;99.90
10083;DHT22;5080;48.528;8.078;2023-02-11T03:33:06;0.20;99.90
10083;DHT22;5080;48.528;8.078;2023-02-11T03:35:39;0.30;99.90
10083;DHT22;5080;48.528;8.078;2023-02-11T03:38:10;0.30;99.90
10083;DHT22;5080;48.528;8.078;2023-02-11T03:40:40;0.20;99.90
10083;DHT22;5080;48.528;8.078;2023-02-11T03:43:11;0.20;99.90
10083;DHT22;5080;48.528;8.078;2023-02-11T03:45:42;0.20;99.90
10083;DHT22;5080;48.528;8.078;2023-02-11T03:48:14;0.20;99.90
10083;DHT22;5080;48.528;8.078;2023-02-11T03:50:44;0.10;99.90
10083;DHT22;5080;48.528;8.078;2023-02-11T03:53:12;0.10;99.90
10083;DHT22;5080;48.528;8.078;2023-02-11T03:55:40;0.10;99.90
10083;DHT22;5080;48.528;8.078;2023-02-11T03:58:08;0.00;99.90
10083;DHT22;5080;48.528;8.078;2023-02-11T04:00:36;0.10;99.90
10083;DHT22;5080;48.528;8.078;2023-02-11T04:03:05;0.10;99.90
10083;DHT22;5080;48.528;8.078;2023-02-11T04:05:32;0.10;99.90
10083;DHT22;5080;48.528;8.078;2023-02-11T04:08:01;0.10;99.90
10083;DHT22;5080;48.528;8.078;2023-02-11T04:10:28;0.10;99.90
10083;DHT22;5080;48.528;8.078;2023-02-11T04:12:55;0.10;99.90
10083;DHT22;5080;48.528;8.078;2023-02-11T04:15:22;0.10;99.90
10083;DHT22;5080;48.528;8.078;2023-02-11T04:17:50;0.10;99.90
10083;DHT22;5080;48.528;8.078;2023-02-11T04:20:17;0.10;99.90
10083;DHT22;5080;48.528;8.078;2023-02-11T04:22:44;0.10;99.90
10083;DHT22;5080;48.528;8.078;2023-02-11T04:25:12;0.10;99.90
10083;DHT22;5080;48.528;8.078;2023-02-11T04:27:38;0.10;99.90
10083;DHT22;5080;48.528;8.078;2023-02-11T04:30:06;0.20;99.90
10083;DHT22;5080;48.528;8.078;2023-02-11T04:32:33;0.30;99.90
10083;DHT22;5080;48.528;8.078;2023-02-11T04:35:00;0.30;99.90
10083;DHT22;5080;48.528;8.078;2023-02-11T04:37:28;0.40;99.90
10083;DHT22;5080;48.528;8.078;2023-02-11T04:39:55;0.50;99.90
10083;DHT22;5080;48.528;8.078;2023-02-11T04:42:23;0.60;99.90
10083;DHT22;5080;48.528;8.078;2023-02-11T04:44:50;0.70;99.90
10083;DHT22;5080;48.528;8.078;2023-02-11T04:47:17;0.70;99.90
10083;DHT22;5080;48.528;8.078;2023-02-11T04:49:43;0.80;99.90
10083;DHT22;5080;48.528;8.078;2023-02-11T04:52:10;0.80;99.90
10083;DHT22;5080;48.528;8.078;2023-02-11T04:54:37;0.80;99.90
10083;DHT22;5080;48.528;8.078;2023-02-11T04:57:05;0.70;99.90
10083;DHT22;5080;48.528;8.078;2023-02-11T04:59:33;0.70;99.90
10083;DHT22;5080;48.528;8.078;2023-02-11T05:02:00;0.70;99.90
10083;DHT22;5080;48.528;8.078;2023-02-11T05:04:26;0.60;99.90
10083;DHT22;5080;48.528;8.078;2023-02-11T05:06:53;0.60;99.90
10083;DHT22;5080;48.528;8.078;2023-02-11T05:09:20;0.50;99.90
10083;DHT22;5080;48.528;8.078;2023-02-11T05:11:47;0.50;99.90
10083;DHT22;5080;48.528;8.078;2023-02-11T05:14:14;0.40;99.90
10083;DHT22;5080;48.528;8.078;2023-02-11T05:16:42;0.30;99.90
10083;DHT22;5080;48.528;8.078;2023-02-11T05:19:09;0.20;99.90
10083;DHT22;5080;48.528;8.078;2023-02-11T05:21:36;0.30;99.90
10083;DHT22;5080;48.528;8.078;2023-02-11T05:24:03;0.30;99.90
10083;DHT22;5080;48.528;8.078;2023-02-11T05:26:30;0.40;99.90
10083;DHT22;5080;48.528;8.078;2023-02-11T05:28:57;0.40;99.90
10083;DHT22;5080;48.528;8.078;2023-02-11T05:31:24;0.50;99.90
10083;DHT22;5080;48.528;8.078;2023-02-11T05:33:52;0.60;99.90
10083;DHT22;5080;48.528;8.078;2023-02-11T05:36:19;0.60;99.90
10083;DHT22;5080;48.528;8.078;2023-02-11T05:38:46;0.70;99.90
10083;DHT22;5080;48.528;8.078;2023-02-11T05:41:13;0.70;99.90
10083;DHT22;5080;48.528;8.078;2023-02-11T05:43:40;0.70;99.90
10083;DHT22;5080;48.528;8.078;2023-02-11T05:46:07;0.80;99.90
10083;DHT22;5080;48.528;8.078;2023-02-11T05:48:34;0.80;99.90
10083;DHT22;5080;48.528;8.078;2023-02-11T05:51:02;0.80;99.90
10083;DHT22;5080;48.528;8.078;2023-02-11T05:53:29;0.80;99.90
10083;DHT22;5080;48.528;8.078;2023-02-11T05:55:56;0.80;99.90
10083;DHT22;5080;48.528;8.078;2023-02-11T05:58:23;0.80;99.90
10083;DHT22;5080;48.528;8.078;2023-02-11T06:00:50;0.80;99.90
10083;DHT22;5080;48.528;8.078;2023-02-11T06:03:16;0.80;99.90
10083;DHT22;5080;48.528;8.078;2023-02-11T06:05:44;0.80;99.90
10083;DHT22;5080;48.528;8.078;2023-02-11T06:08:12;0.80;99.90
10083;DHT22;5080;48.528;8.078;2023-02-11T06:10:39;0.80;99.90
10083;DHT22;5080;48.528;8.078;2023-02-11T06:13:07;0.80;99.90
10083;DHT22;5080;48.528;8.078;2023-02-11T06:15:34;0.90;99.90
10083;DHT22;5080;48.528;8.078;2023-02-11T06:18:01;0.80;99.90
10083;DHT22;5080;48.528;8.078;2023-02-11T06:20:28;0.80;99.90
10083;DHT22;5080;48.528;8.078;2023-02-11T06:22:55;0.80;99.90
10083;DHT22;5080;48.528;8.078;2023-02-11T06:25:23;0.70;99.90
10083;DHT22;5080;48.528;8.078;2023-02-11T06:27:50;0.70;99.90
10083;DHT22;5080;48.528;8.078;2023-02-11T06:30:17;0.70;99.90
10083;DHT22;5080;48.528;8.078;2023-02-11T06:32:44;0.70;99.90
10083;DHT22;5080;48.528;8.078;2023-02-11T06:35:11;0.80;99.90
10083;DHT22;5080;48.528;8.078;2023-02-11T06:37:38;0.90;99.90
10083;DHT22;5080;48.528;8.078;2023-02-11T06:40:05;1.00;99.90
10083;DHT22;5080;48.528;8.078;2023-02-11T06:42:34;1.00;99.90
10083;DHT22;5080;48.528;8.078;2023-02-11T06:45:03;1.10;99.90
10083;DHT22;5080;48.528;8.078;2023-02-11T06:47:30;1.20;99.90
10083;DHT22;5080;48.528;8.078;2023-02-11T06:49:57;1.20;99.90
10083;DHT22;5080;48.528;8.078;2023-02-11T06:52:24;1.30;99.90
10083;DHT22;5080;48.528;8.078;2023-02-11T06:54:51;1.30;99.90
10083;DHT22;5080;48.528;8.078;2023-02-11T06:57:18;1.30;99.90
10083;DHT22;5080;48.528;8.078;2023-02-11T06:59:46;1.40;99.90
10083;DHT22;5080;48.528;8.078;2023-02-11T07:02:12;1.30;99.90
10083;DHT22;5080;48.528;8.078;2023-02-11T07:04:39;1.30;99.90
10083;DHT22;5080;48.528;8.078;2023-02-11T07:07:06;1.30;99.90
10083;DHT22;5080;48.528;8.078;2023-02-11T07:09:33;1.40;99.90
10083;DHT22;5080;48.528;8.078;2023-02-11T07:12:00;1.30;99.90
10083;DHT22;5080;48.528;8.078;2023-02-11T07:14:27;1.30;99.90
10083;DHT22;5080;48.528;8.078;2023-02-11T07:16:55;1.40;99.90
10083;DHT22;5080;48.528;8.078;2023-02-11T07:19:22;1.40;99.90
10083;DHT22;5080;48.528;8.078;2023-02-11T07:21:49;1.40;99.90
10083;DHT22;5080;48.528;8.078;2023-02-11T07:24:16;1.50;99.90
10083;DHT22;5080;48.528;8.078;2023-02-11T07:26:43;1.50;99.90
10083;DHT22;5080;48.528;8.078;2023-02-11T07:29:10;1.60;99.90
10083;DHT22;5080;48.528;8.078;2023-02-11T07:31:37;1.70;99.90
10083;DHT22;5080;48.528;8.078;2023-02-11T07:34:05;1.70;99.90
10083;DHT22;5080;48.528;8.078;2023-02-11T07:36:32;1.80;99.90
10083;DHT22;5080;48.528;8.078;2023-02-11T07:38:59;1.90;99.90
10083;DHT22;5080;48.528;8.078;2023-02-11T07:41:26;1.90;99.90
10083;DHT22;5080;48.528;8.078;2023-02-11T07:43:54;2.00;99.90
10083;DHT22;5080;48.528;8.078;2023-02-11T07:46:22;2.00;99.90
10083;DHT22;5080;48.528;8.078;2023-02-11T07:48:49;2.10;99.90
10083;DHT22;5080;48.528;8.078;2023-02-11T07:51:20;2.10;99.90
10083;DHT22;5080;48.528;8.078;2023-02-11T07:53:47;2.10;99.90
10083;DHT22;5080;48.528;8.078;2023-02-11T07:56:15;2.10;99.90
10083;DHT22;5080;48.528;8.078;2023-02-11T07:58:43;2.10;99.90
10083;DHT22;5080;48.528;8.078;2023-02-11T08:01:12;2.10;99.90
10083;DHT22;5080;48.528;8.078;2023-02-11T08:03:40;2.10;99.90
10083;DHT22;5080;48.528;8.078;2023-02-11T08:06:09;2.20;99.90
10083;DHT22;5080;48.528;8.078;2023-02-11T08:08:37;2.20;99.90
10083;DHT22;5080;48.528;8.078;2023-02-11T08:11:06;2.30;99.90
10083;DHT22;5080;48.528;8.078;2023-02-11T08:13:33;2.30;99.90
10083;DHT22;5080;48.528;8.078;2023-02-11T08:16:00;2.40;99.90
10083;DHT22;5080;48.528;8.078;2023-02-11T08:18:28;2.40;99.90
10083;DHT22;5080;48.528;8.078;2023-02-11T08:20:55;2.40;99.90
10083;DHT22;5080;48.528;8.078;2023-02-11T08:23:22;2.50;99.90
10083;DHT22;5080;48.528;8.078;2023-02-11T08:25:50;2.50;99.90
10083;DHT22;5080;48.528;8.078;2023-02-11T08:28:17;2.50;99.90
10083;DHT22;5080;48.528;8.078;2023-02-11T08:30:44;2.50;99.90
10083;DHT22;5080;48.528;8.078;2023-02-11T08:33:11;2.50;99.90
10083;DHT22;5080;48.528;8.078;2023-02-11T08:35:38;2.50;99.90
10083;DHT22;5080;48.528;8.078;2023-02-11T08:38:05;2.50;99.90
10083;DHT22;5080;48.528;8.078;2023-02-11T08:40:33;2.50;99.90
10083;DHT22;5080;48.528;8.078;2023-02-11T08:43:01;2.60;99.90
10083;DHT22;5080;48.528;8.078;2023-02-11T08:45:28;2.80;99.90
10083;DHT22;5080;48.528;8.078;2023-02-11T08:47:55;3.00;99.90
10083;DHT22;5080;48.528;8.078;2023-02-11T08:50:22;3.30;99.90
10083;DHT22;5080;48.528;8.078;2023-02-11T08:52:48;3.50;99.90
10083;DHT22;5080;48.528;8.078;2023-02-11T08:55:17;3.60;99.90
10083;DHT22;5080;48.528;8.078;2023-02-11T08:57:44;3.80;99.90
10083;DHT22;5080;48.528;8.078;2023-02-11T09:00:14;4.10;99.90
10083;DHT22;5080;48.528;8.078;2023-02-11T09:02:41;4.20;99.90
10083;DHT22;5080;48.528;8.078;2023-02-11T09:05:08;4.40;99.90
10083;DHT22;5080;48.528;8.078;2023-02-11T09:07:35;4.60;99.90
10083;DHT22;5080;48.528;8.078;2023-02-11T09:10:02;4.80;99.90
10083;DHT22;5080;48.528;8.078;2023-02-11T09:12:28;5.00;99.90
10083;DHT22;5080;48.528;8.078;2023-02-11T09:14:55;5.20;99.90
10083;DHT22;5080;48.528;8.078;2023-02-11T09:17:24;5.30;99.90
10083;DHT22;5080;48.528;8.078;2023-02-11T09:19:51;5.50;99.90
10083;DHT22;5080;48.528;8.078;2023-02-11T09:22:18;5.70;99.90
10083;DHT22;5080;48.528;8.078;2023-02-11T09:24:44;5.90;99.90
10083;DHT22;5080;48.528;8.078;2023-02-11T09:27:11;6.10;99.90
10083;DHT22;5080;48.528;8.078;2023-02-11T09:29:38;6.20;99.90
10083;DHT22;5080;48.528;8.078;2023-02-11T09:32:05;6.30;99.90
10083;DHT22;5080;48.528;8.078;2023-02-11T09:34:33;6.50;99.90
10083;DHT22;5080;48.528;8.078;2023-02-11T09:37:00;6.60;99.90
10083;DHT22;5080;48.528;8.078;2023-02-11T09:39:27;6.70;99.90
10083;DHT22;5080;48.528;8.078;2023-02-11T09:44:57;6.70;99.90
10083;DHT22;5080;48.528;8.078;2023-02-11T09:47:28;6.80;99.90
10083;DHT22;5080;48.528;8.078;2023-02-11T09:50:00;7.00;99.90
10083;DHT22;5080;48.528;8.078;2023-02-11T09:52:35;6.90;99.90
10083;DHT22;5080;48.528;8.078;2023-02-11T09:55:05;7.00;99.90
10083;DHT22;5080;48.528;8.078;2023-02-11T09:57:36;7.20;99.90
10083;DHT22;5080;48.528;8.078;2023-02-11T10:00:16;6.90;99.90
10083;DHT22;5080;48.528;8.078;2023-02-11T10:08:42;7.20;99.90
10083;DHT22;5080;48.528;8.078;2023-02-11T10:11:20;7.10;99.90
10083;DHT22;5080;48.528;8.078;2023-02-11T10:13:57;7.20;99.90
10083;DHT22;5080;48.528;8.078;2023-02-11T10:16:42;7.50;99.90
10083;DHT22;5080;48.528;8.078;2023-02-11T10:19:19;7.50;99.90
10083;DHT22;5080;48.528;8.078;2023-02-11T10:22:01;7.60;99.90
10083;DHT22;5080;48.528;8.078;2023-02-11T10:24:31;7.40;99.90
10083;DHT22;5080;48.528;8.078;2023-02-11T10:26:59;7.50;99.90
10083;DHT22;5080;48.528;8.078;2023-02-11T10:29:34;7.60;99.90
10083;DHT22;5080;48.528;8.078;2023-02-11T10:32:06;7.60;99.90
10083;DHT22;5080;48.528;8.078;2023-02-11T10:34:40;8.20;99.90
10083;DHT22;5080;48.528;8.078;2023-02-11T10:37:11;9.10;99.90
10083;DHT22;5080;48.528;8.078;2023-02-11T10:39:39;9.60;99.90
10083;DHT22;5080;48.528;8.078;2023-02-11T10:42:09;9.80;99.90
10083;DHT22;5080;48.528;8.078;2023-02-11T10:44:38;10.10;99.90
10083;DHT22;5080;48.528;8.078;2023-02-11T10:47:16;10.40;99.90
10083;DHT22;5080;48.528;8.078;2023-02-11T10:49:45;10.50;99.90
10083;DHT22;5080;48.528;8.078;2023-02-11T10:52:22;10.80;99.90
10083;DHT22;5080;48.528;8.078;2023-02-11T10:55:13;10.60;99.90
10083;DHT22;5080;48.528;8.078;2023-02-11T10:57:42;9.60;99.90
10083;DHT22;5080;48.528;8.078;2023-02-11T11:00:34;9.40;99.90
10083;DHT22;5080;48.528;8.078;2023-02-11T11:03:04;9.40;99.90
10083;DHT22;5080;48.528;8.078;2023-02-11T11:05:35;9.20;99.90
10083;DHT22;5080;48.528;8.078;2023-02-11T11:08:05;9.10;99.90
10083;DHT22;5080;48.528;8.078;2023-02-11T11:10:38;9.00;99.90
10083;DHT22;5080;48.528;8.078;2023-02-11T11:13:29;8.90;99.90
10083;DHT22;5080;48.528;8.078;2023-02-11T11:16:17;9.00;99.90
10083;DHT22;5080;48.528;8.078;2023-02-11T11:18:45;8.80;99.90
10083;DHT22;5080;48.528;8.078;2023-02-11T11:21:13;8.60;99.90
10083;DHT22;5080;48.528;8.078;2023-02-11T11:23:49;8.60;99.90
10083;DHT22;5080;48.528;8.078;2023-02-11T11:26:17;8.50;99.90
10083;DHT22;5080;48.528;8.078;2023-02-11T11:28:54;8.70;99.90
10083;DHT22;5080;48.528;8.078;2023-02-11T11:31:23;8.70;99.90
10083;DHT22;5080;48.528;8.078;2023-02-11T11:33:53;8.80;99.90
10083;DHT22;5080;48.528;8.078;2023-02-11T11:36:24;8.70;99.90
10083;DHT22;5080;48.528;8.078;2023-02-11T11:39:00;8.60;99.90
10083;DHT22;5080;48.528;8.078;2023-02-11T11:41:29;8.60;99.90
10083;DHT22;5080;48.528;8.078;2023-02-11T11:43:58;8.70;99.90
10083;DHT22;5080;48.528;8.078;2023-02-11T11:46:27;8.90;99.90
10083;DHT22;5080;48.528;8.078;2023-02-11T11:49:00;9.10;99.90
10083;DHT22;5080;48.528;8.078;2023-02-11T11:51:29;9.20;99.90
10083;DHT22;5080;48.528;8.078;2023-02-11T11:54:01;9.10;99.90
10083;DHT22;5080;48.528;8.078;2023-02-11T11:56:31;9.10;99.90
10083;DHT22;5080;48.528;8.078;2023-02-11T11:59:00;9.20;99.90
10083;DHT22;5080;48.528;8.078;2023-02-11T12:01:43;9.10;99.90
10083;DHT22;5080;48.528;8.078;2023-02-11T12:04:37;9.10;99.90
10083;DHT22;5080;48.528;8.078;2023-02-11T12:07:21;9.10;99.90
10083;DHT22;5080;48.528;8.078;2023-02-11T12:10:20;9.20;99.90
10083;DHT22;5080;48.528;8.078;2023-02-11T12:12:54;9.20;99.90
10083;DHT22;5080;48.528;8.078;2023-02-11T12:15:31;9.10;99.90
10083;DHT22;5080;48.528;8.078;2023-02-11T12:18:20;8.90;99.90
10083;DHT22;5080;48.528;8.078;2023-02-11T12:21:08;8.80;99.90
10083;DHT22;5080;48.528;8.078;2023-02-11T12:23:46;8.80;99.90
10083;DHT22;5080;48.528;8.078;2023-02-11T12:26:19;8.80;99.90
10083;DHT22;5080;48.528;8.078;2023-02-11T12:29:08;8.90;99.90
10083;DHT22;5080;48.528;8.078;2023-02-11T12:31:49;8.80;99.90
10083;DHT22;5080;48.528;8.078;2023-02-11T12:34:32;8.90;99.90
10083;DHT22;5080;48.528;8.078;2023-02-11T12:37:08;9.00;99.90
10083;DHT22;5080;48.528;8.078;2023-02-11T12:39:42;9.10;99.90
10083;DHT22;5080;48.528;8.078;2023-02-11T12:42:57;9.10;99.90
10083;DHT22;5080;48.528;8.078;2023-02-11T12:46:13;9.20;99.90
10083;DHT22;5080;48.528;8.078;2023-02-11T12:48:59;9.20;99.90
10083;DHT22;5080;48.528;8.078;2023-02-11T12:51:48;9.20;99.90
10083;DHT22;5080;48.528;8.078;2023-02-11T12:54:21;9.20;99.90
10083;DHT22;5080;48.528;8.078;2023-02-11T12:56:52;9.20;99.90
10083;DHT22;5080;48.528;8.078;2023-02-11T12:59:32;9.30;99.90
10083;DHT22;5080;48.528;8.078;2023-02-11T13:02:04;9.30;99.90
10083;DHT22;5080;48.528;8.078;2023-02-11T13:04:39;9.40;99.90
10083;DHT22;5080;48.528;8.078;2023-02-11T13:07:12;9.40;99.90
10083;DHT22;5080;48.528;8.078;2023-02-11T13:09:44;9.40;99.90
10083;DHT22;5080;48.528;8.078;2023-02-11T13:12:15;9.50;99.90
10083;DHT22;5080;48.528;8.078;2023-02-11T13:15:05;9.60;99.90
10083;DHT22;5080;48.528;8.078;2023-02-11T13:17:36;9.60;99.90
10083;DHT22;5080;48.528;8.078;2023-02-11T13:20:16;9.60;99.90
10083;DHT22;5080;48.528;8.078;2023-02-11T13:22:49;9.70;99.90
10083;DHT22;5080;48.528;8.078;2023-02-11T13:25:21;9.70;99.90
10083;DHT22;5080;48.528;8.078;2023-02-11T13:27:56;9.70;99.90
10083;DHT22;5080;48.528;8.078;2023-02-11T13:30:29;9.70;99.90
10083;DHT22;5080;48.528;8.078;2023-02-11T13:33:16;9.80;99.90
10083;DHT22;5080;48.528;8.078;2023-02-11T13:35:47;9.80;99.90
10083;DHT22;5080;48.528;8.078;2023-02-11T13:38:20;9.90;99.90
10083;DHT22;5080;48.528;8.078;2023-02-11T13:41:00;10.00;99.90
10083;DHT22;5080;48.528;8.078;2023-02-11T13:43:30;11.30;99.90
10083;DHT22;5080;48.528;8.078;2023-02-11T13:46:00;11.90;99.90
10083;DHT22;5080;48.528;8.078;2023-02-11T13:48:30;12.20;99.90
10083;DHT22;5080;48.528;8.078;2023-02-11T13:50:59;11.70;99.90
10083;DHT22;5080;48.528;8.078;2023-02-11T13:53:28;11.10;99.90
10083;DHT22;5080;48.528;8.078;2023-02-11T13:56:06;10.90;99.90
10083;DHT22;5080;48.528;8.078;2023-02-11T13:58:35;10.70;99.90
10083;DHT22;5080;48.528;8.078;2023-02-11T14:01:06;10.60;99.90
10083;DHT22;5080;48.528;8.078;2023-02-11T14:03:35;10.50;99.90
10083;DHT22;5080;48.528;8.078;2023-02-11T14:06:22;10.40;99.90
10083;DHT22;5080;48.528;8.078;2023-02-11T14:09:34;10.40;99.90
10083;DHT22;5080;48.528;8.078;2023-02-11T14:12:33;10.40;99.90
10083;DHT22;5080;48.528;8.078;2023-02-11T14:15:17;10.40;99.90
10083;DHT22;5080;48.528;8.078;2023-02-11T14:17:44;10.30;99.90
10083;DHT22;5080;48.528;8.078;2023-02-11T14:20:34;10.20;99.90
10083;DHT22;5080;48.528;8.078;2023-02-11T14:23:02;10.30;99.90
10083;DHT22;5080;48.528;8.078;2023-02-11T14:25:31;10.30;99.90
10083;DHT22;5080;48.528;8.078;2023-02-11T14:28:02;10.20;99.90
10083;DHT22;5080;48.528;8.078;2023-02-11T14:30:48;10.20;99.90
10083;DHT22;5080;48.528;8.078;2023-02-11T14:36:36;10.10;99.90
10083;DHT22;5080;48.528;8.078;2023-02-11T14:39:15;10.10;99.90
10083;DHT22;5080;48.528;8.078;2023-02-11T14:41:47;10.20;99.90
10083;DHT22;5080;48.528;8.078;2023-02-11T14:44:18;10.30;99.90
10083;DHT22;5080;48.528;8.078;2023-02-11T14:46:47;10.20;99.90
10083;DHT22;5080;48.528;8.078;2023-02-11T14:49:22;10.30;99.90
10083;DHT22;5080;48.528;8.078;2023-02-11T14:51:53;10.30;99.90
10083;DHT22;5080;48.528;8.078;2023-02-11T14:54:22;10.30;99.90
10083;DHT22;5080;48.528;8.078;2023-02-11T14:57:06;10.30;99.90
10083;DHT22;5080;48.528;8.078;2023-02-11T14:59:33;10.30;99.90
10083;DHT22;5080;48.528;8.078;2023-02-11T15:02:00;10.40;99.90
10083;DHT22;5080;48.528;8.078;2023-02-11T15:04:29;10.50;99.90
10083;DHT22;5080;48.528;8.078;2023-02-11T15:07:01;10.60;99.90
10083;DHT22;5080;48.528;8.078;2023-02-11T15:09:32;10.80;99.90
10083;DHT22;5080;48.528;8.078;2023-02-11T15:11:59;10.80;99.90
10083;DHT22;5080;48.528;8.078;2023-02-11T15:14:29;10.80;99.90
10083;DHT22;5080;48.528;8.078;2023-02-11T15:16:59;10.70;99.90
10083;DHT22;5080;48.528;8.078;2023-02-11T15:19:29;10.60;99.90
10083;DHT22;5080;48.528;8.078;2023-02-11T15:21:57;10.60;99.90
10083;DHT22;5080;48.528;8.078;2023-02-11T15:24:32;10.70;99.90
10083;DHT22;5080;48.528;8.078;2023-02-11T15:27:02;10.40;99.90
10083;DHT22;5080;48.528;8.078;2023-02-11T15:29:36;10.40;99.90
10083;DHT22;5080;48.528;8.078;2023-02-11T15:32:05;10.40;99.90
10083;DHT22;5080;48.528;8.078;2023-02-11T15:34:33;10.30;99.90
10083;DHT22;5080;48.528;8.078;2023-02-11T15:37:00;10.20;99.90
10083;DHT22;5080;48.528;8.078;2023-02-11T15:39:31;10.10;99.90
10083;DHT22;5080;48.528;8.078;2023-02-11T15:42:22;10.00;99.90
10083;DHT22;5080;48.528;8.078;2023-02-11T15:45:09;9.90;99.90
10083;DHT22;5080;48.528;8.078;2023-02-11T15:47:37;9.80;99.90
10083;DHT22;5080;48.528;8.078;2023-02-11T15:50:06;9.80;99.90
10083;DHT22;5080;48.528;8.078;2023-02-11T15:52:33;9.70;99.90
10083;DHT22;5080;48.528;8.078;2023-02-11T15:55:00;9.70;99.90
10083;DHT22;5080;48.528;8.078;2023-02-11T15:57:28;9.60;99.90
10083;DHT22;5080;48.528;8.078;2023-02-11T15:59:55;9.60;99.90
10083;DHT22;5080;48.528;8.078;2023-02-11T16:02:28;9.60;99.90
10083;DHT22;5080;48.528;8.078;2023-02-11T16:04:57;9.50;99.90
10083;DHT22;5080;48.528;8.078;2023-02-11T16:07:39;9.40;99.90
10083;DHT22;5080;48.528;8.078;2023-02-11T16:10:21;9.40;99.90
10083;DHT22;5080;48.528;8.078;2023-02-11T16:12:54;9.30;99.90
10083;DHT22;5080;48.528;8.078;2023-02-11T16:15:42;9.20;99.90
10083;DHT22;5080;48.528;8.078;2023-02-11T16:18:21;9.10;99.90
10083;DHT22;5080;48.528;8.078;2023-02-11T16:20:51;9.10;99.90
10083;DHT22;5080;48.528;8.078;2023-02-11T16:23:22;9.00;99.90
10083;DHT22;5080;48.528;8.078;2023-02-11T16:25:55;8.90;99.90
10083;DHT22;5080;48.528;8.078;2023-02-11T16:28:23;8.90;99.90
10083;DHT22;5080;48.528;8.078;2023-02-11T16:30:51;8.90;99.90
10083;DHT22;5080;48.528;8.078;2023-02-11T16:33:20;8.90;99.90
10083;DHT22;5080;48.528;8.078;2023-02-11T16:35:47;8.90;99.90
10083;DHT22;5080;48.528;8.078;2023-02-11T16:38:14;8.80;99.90
10083;DHT22;5080;48.528;8.078;2023-02-11T16:40:41;8.80;99.90
10083;DHT22;5080;48.528;8.078;2023-02-11T16:43:10;8.70;99.90
10083;DHT22;5080;48.528;8.078;2023-02-11T16:45:37;8.60;99.90
10083;DHT22;5080;48.528;8.078;2023-02-11T16:48:06;8.30;99.90